createdAt,value
2022-09-27T05:19:35.352Z,98832.91
2022-09-27T05:22:03.837Z,98831.41
2022-09-27T05:24:32.389Z,98825.00
2022-09-27T05:27:01.399Z,98829.53
2022-09-27T05:29:30.336Z,98829.16
2022-09-27T05:31:59.112Z,98826.59
2022-09-27T05:34:27.999Z,98835.75
2022-09-27T05:36:59.348Z,98825.19
2022-09-27T05:39:27.708Z,98824.22
2022-09-27T05:41:57.706Z,98823.50
2022-09-27T05:44:26.662Z,98823.16
2022-09-27T05:46:54.966Z,98814.63
2022-09-27T05:49:23.407Z,98819.50
2022-09-27T05:51:52.139Z,98811.53
2022-09-27T05:54:21.904Z,98811.75
2022-09-27T05:56:51.569Z,98817.47
2022-09-27T05:59:19.960Z,98817.47
2022-09-27T06:01:48.485Z,98812.50
2022-09-27T06:04:17.130Z,98815.44
2022-09-27T06:06:45.518Z,98828.50
2022-09-27T06:09:15.342Z,98821.38
2022-09-27T06:11:46.271Z,98821.84
2022-09-27T06:14:16.242Z,98824.84
2022-09-27T06:16:45.721Z,98816.88
2022-09-27T06:19:14.327Z,98819.00
2022-09-27T06:21:43.516Z,98816.47
2022-09-27T06:24:13.100Z,98819.84
2022-09-27T06:26:41.483Z,98813.56
2022-09-27T06:29:12.126Z,98817.31
2022-09-27T06:31:40.641Z,98819.47
2022-09-27T06:34:09.361Z,98817.78
2022-09-27T06:36:38.980Z,98821.59
2022-09-27T06:39:07.921Z,98818.84
2022-09-27T06:41:39.280Z,98817.78
2022-09-27T06:44:08.141Z,98812.34
2022-09-27T06:46:38.514Z,98814.00
2022-09-27T06:49:07.777Z,98815.91
2022-09-27T06:51:36.698Z,98809.84
2022-09-27T06:54:05.168Z,98809.84
2022-09-27T06:56:33.652Z,98816.13
2022-09-27T06:59:19.568Z,98812.56
2022-09-27T07:01:50.042Z,98818.84
2022-09-27T07:04:19.105Z,98812.34
2022-09-27T07:06:47.558Z,98810.69
2022-09-27T07:09:17.139Z,98809.84
2022-09-27T07:11:46.292Z,98800.59
2022-09-27T07:14:14.991Z,98809.84
2022-09-27T07:16:43.935Z,98808.19
2022-09-27T07:19:16.091Z,98805.72
2022-09-27T07:21:45.347Z,98809.50
2022-09-27T07:24:14.194Z,98813.06
2022-09-27T07:26:42.495Z,98821.25
2022-09-27T07:29:11.201Z,98818.97
2022-09-27T07:31:41.929Z,98829.53
2022-09-27T07:34:12.613Z,98830.59
2022-09-27T07:36:42.642Z,98828.91
2022-09-27T07:39:11.826Z,98833.78
2022-09-27T07:41:40.545Z,98831.03
2022-09-27T07:44:10.368Z,98831.03
2022-09-27T07:46:38.810Z,98829.41
2022-09-27T07:49:07.254Z,98831.53
2022-09-27T07:51:36.246Z,98826.06
2022-09-27T07:54:08.880Z,98832.81
2022-09-27T07:56:37.290Z,98827.59
2022-09-27T07:59:05.852Z,98830.56
2022-09-27T08:01:35.180Z,98828.69
2022-09-27T08:04:03.897Z,98833.03
2022-09-27T08:06:32.363Z,98831.97
2022-09-27T08:09:03.454Z,98836.97
2022-09-27T08:11:33.467Z,98833.66
2022-09-27T08:14:02.574Z,98842.88
2022-09-27T08:16:31.084Z,98837.44
2022-09-27T08:19:08.686Z,98834.97
2022-09-27T08:21:37.307Z,98833.03
2022-09-27T08:24:06.798Z,98832.47
2022-09-27T08:26:37.726Z,98841.69
2022-09-27T08:29:06.435Z,98841.09
2022-09-27T08:31:34.773Z,98831.25
2022-09-27T08:34:05.320Z,98835.91
2022-09-27T08:36:36.217Z,98838.03
2022-09-27T08:39:08.745Z,98835.53
2022-09-27T08:41:42.691Z,98836.59
2022-09-27T08:44:21.013Z,98839.31
2022-09-27T08:47:01.360Z,98838.72
2022-09-27T08:49:37.499Z,98834.91
2022-09-27T08:52:09.818Z,98843.69
2022-09-27T08:54:39.080Z,98845.97
2022-09-27T08:57:13.574Z,98846.31
2022-09-27T08:59:44.965Z,98845.88
2022-09-27T09:02:19.483Z,98845.88
2022-09-27T09:04:52.215Z,98841.22
2022-09-27T09:07:40.057Z,98839.31
2022-09-27T09:10:39.056Z,98840.03
2022-09-27T09:13:18.454Z,98839.22
2022-09-27T09:15:58.397Z,98842.16
2022-09-27T09:18:45.518Z,98838.84
2022-09-27T09:21:23.141Z,98847.88
2022-09-27T09:24:13.138Z,98852.25
2022-09-27T09:26:50.626Z,98845.97
2022-09-27T09:29:35.882Z,98849.75
2022-09-27T09:32:15.214Z,98856.88
2022-09-27T09:34:48.297Z,98852.84
2022-09-27T09:37:21.692Z,98856.53
2022-09-27T09:39:55.752Z,98846.03
2022-09-27T09:42:28.465Z,98847.09
2022-09-27T09:45:03.733Z,98848.78
2022-09-27T09:47:40.447Z,98849.34
2022-09-27T09:50:19.027Z,98850.41
2022-09-27T09:52:54.684Z,98844.22
2022-09-27T09:55:26.909Z,98845.81
2022-09-27T09:58:05.543Z,98846.28
2022-09-27T10:00:35.434Z,98848.84
2022-09-27T10:03:04.922Z,98845.16
2022-09-27T10:05:34.480Z,98839.38
2022-09-27T10:08:06.593Z,98839.38
2022-09-27T10:10:35.790Z,98845.88
2022-09-27T10:13:05.571Z,98850.72
2022-09-27T10:15:35.721Z,98842.78
2022-09-27T10:18:04.398Z,98849.06
2022-09-27T10:20:36.818Z,98848.50
2022-09-27T10:23:19.075Z,98840.88
2022-09-27T10:25:50.994Z,98837.72
2022-09-27T10:28:37.045Z,98844.94
2022-09-27T10:31:09.707Z,98828.59
2022-09-27T10:33:40.919Z,98839.50
2022-09-27T10:36:29.254Z,98845.53
2022-09-27T10:38:59.297Z,98845.53
2022-09-27T10:41:33.225Z,98835.72
2022-09-27T10:44:22.567Z,98843.06
2022-09-27T10:46:56.568Z,98846.00
2022-09-27T10:49:34.018Z,98837.22
2022-09-27T10:52:05.222Z,98842.31
2022-09-27T10:54:35.621Z,98852.41
2022-09-27T10:57:06.516Z,98852.84
2022-09-27T10:59:38.487Z,98862.13
2022-09-27T11:02:21.456Z,98850.13
2022-09-27T11:05:06.651Z,98849.06
2022-09-27T11:07:37.712Z,98849.06
2022-09-27T11:10:25.180Z,98848.50
2022-09-27T11:13:13.320Z,98847.41
2022-09-27T11:15:58.768Z,98840.66
2022-09-27T11:18:38.447Z,98837.81
2022-09-27T11:21:16.867Z,98842.94
2022-09-27T11:23:57.927Z,98839.03
2022-09-27T11:26:39.624Z,98835.84
2022-09-27T11:29:20.853Z,98839.41
2022-09-27T11:32:06.439Z,98845.56
2022-09-27T11:34:58.772Z,98846.47
2022-09-27T11:37:40.021Z,98846.13
2022-09-27T11:40:21.758Z,98843.88
2022-09-27T11:43:16.907Z,98844.34
2022-09-27T11:49:04.778Z,98842.56
2022-09-27T11:51:48.326Z,98848.34
2022-09-27T11:54:43.310Z,98852.53
2022-09-27T11:57:23.385Z,98842.22
2022-09-27T12:00:12.270Z,98842.09
2022-09-27T12:03:09.834Z,98844.44
2022-09-27T12:05:57.677Z,98838.16
2022-09-27T12:08:38.925Z,98841.00
2022-09-27T12:11:19.530Z,98834.59
2022-09-27T12:13:53.068Z,98828.91
2022-09-27T12:16:23.968Z,98835.25
2022-09-27T12:18:55.391Z,98832.63
2022-09-27T12:21:25.783Z,98840.00
2022-09-27T12:23:59.022Z,98830.75
2022-09-27T12:26:32.978Z,98835.13
2022-09-27T12:29:06.508Z,98833.00
2022-09-27T12:31:42.373Z,98846.44
2022-09-27T12:34:19.765Z,98846.16
2022-09-27T12:36:57.852Z,98847.59
2022-09-27T12:39:44.377Z,98854.94
2022-09-27T12:42:20.427Z,98851.28
2022-09-27T12:44:52.120Z,98852.00
2022-09-27T12:47:47.082Z,98853.16
2022-09-27T12:50:30.416Z,98854.38
2022-09-27T12:53:05.700Z,98850.53
2022-09-27T12:56:10.861Z,98856.00
2022-09-27T12:59:06.524Z,98863.63
2022-09-27T13:01:54.568Z,98865.28
2022-09-27T13:04:44.572Z,98869.91
2022-09-27T13:07:25.968Z,98867.53
2022-09-27T13:10:08.941Z,98869.78
2022-09-27T13:12:40.151Z,98875.25
2022-09-27T13:15:17.543Z,98886.50
2022-09-27T13:17:51.231Z,98878.91
2022-09-27T13:20:42.828Z,98875.94
2022-09-27T13:23:50.568Z,98890.66
2022-09-27T13:26:44.731Z,98887.34
2022-09-27T13:29:26.676Z,98894.69
2022-09-27T13:32:23.603Z,98889.47
2022-09-27T13:34:55.056Z,98897.44
2022-09-27T13:37:47.029Z,98897.19
2022-09-27T13:40:34.813Z,98904.31
2022-09-27T13:43:42.105Z,98903.22
2022-09-27T13:46:20.739Z,98903.47
2022-09-27T13:48:55.196Z,98904.19
2022-09-27T13:51:35.587Z,98902.16
2022-09-27T13:54:10.345Z,98905.13
2022-09-27T13:56:52.863Z,98899.66
2022-09-27T13:59:34.637Z,98904.28
2022-09-27T14:02:18.339Z,98907.28
2022-09-27T14:04:51.812Z,98902.88
2022-09-27T14:07:25.970Z,98906.44
2022-09-27T14:09:57.008Z,98909.41
2022-09-27T14:12:29.735Z,98911.53
2022-09-27T14:14:59.519Z,98919.97
2022-09-27T14:17:31.722Z,98918.31
2022-09-27T14:20:00.320Z,98916.66
2022-09-27T14:22:28.885Z,98925.44
2022-09-27T14:24:58.729Z,98922.44
2022-09-27T14:27:28.421Z,98923.88
2022-09-27T14:29:58.787Z,98927.44
2022-09-27T14:32:31.698Z,98941.69
2022-09-27T14:35:33.988Z,98945.50
2022-09-27T14:38:20.732Z,98945.50
2022-09-27T14:40:59.630Z,98950.94
2022-09-27T14:43:30.336Z,98949.28
2022-09-27T14:46:02.680Z,98950.94
2022-09-27T14:48:35.171Z,98954.72
2022-09-27T14:51:10.614Z,98954.34
2022-09-27T14:53:46.808Z,98961.59
2022-09-27T14:56:19.529Z,98958.50
2022-09-27T14:58:48.634Z,98963.59
2022-09-27T15:01:20.255Z,98965.75
2022-09-27T15:03:50.925Z,98974.16
2022-09-27T15:06:20.544Z,98972.25
2022-09-27T15:08:50.528Z,98962.78
2022-09-27T15:11:20.499Z,98974.50
2022-09-27T15:13:53.695Z,98966.56
2022-09-27T15:16:24.318Z,98964.19
2022-09-27T15:19:04.060Z,98975.50
2022-09-27T15:21:35.020Z,98974.16
2022-09-27T15:24:04.202Z,98987.81
2022-09-27T15:26:38.796Z,98990.19
2022-09-27T15:29:08.146Z,98992.81
2022-09-27T15:31:37.743Z,98991.13
2022-09-27T15:34:08.000Z,98998.25
2022-09-27T15:36:56.312Z,98999.88
2022-09-27T15:39:30.395Z,98995.28
2022-09-27T15:42:05.251Z,99001.56
2022-09-27T15:44:46.550Z,98998.25
2022-09-27T15:47:57.940Z,99007.50
2022-09-27T15:50:39.013Z,99009.97
2022-09-27T15:53:07.438Z,99007.25
2022-09-27T15:55:41.053Z,99008.91
2022-09-27T15:58:16.938Z,99014.75
2022-09-27T16:00:59.690Z,99009.03
2022-09-27T16:03:28.637Z,99012.38
2022-09-27T16:06:00.370Z,99014.03
2022-09-27T16:08:29.053Z,99008.59
2022-09-27T16:11:00.010Z,99019.50
2022-09-27T16:13:32.965Z,99032.09
2022-09-27T16:16:05.297Z,99020.34
2022-09-27T16:18:34.138Z,99025.56
2022-09-27T16:21:03.999Z,99028.28
2022-09-27T16:23:32.385Z,99025.56
2022-09-27T16:26:00.751Z,99019.50
2022-09-27T16:28:29.807Z,99027.06
2022-09-27T16:31:04.965Z,99031.69
2022-09-27T16:33:34.567Z,99030.28
2022-09-27T16:36:09.223Z,99031.97
2022-09-27T16:38:37.897Z,99033.00
2022-09-27T16:41:06.441Z,99032.41
2022-09-27T16:43:34.861Z,99035.97
2022-09-27T16:46:09.188Z,99041.44
2022-09-27T16:48:38.095Z,99042.25
2022-09-27T16:51:29.887Z,99042.88
2022-09-27T16:53:59.346Z,99051.88
2022-09-27T16:56:28.591Z,99048.31
2022-09-27T16:58:57.554Z,99052.69
2022-09-27T17:01:27.435Z,99057.34
2022-09-27T17:03:57.724Z,99057.56
2022-09-27T17:06:29.206Z,99063.88
2022-09-27T17:08:57.768Z,99055.06
2022-09-27T17:11:26.105Z,99053.41
2022-09-27T17:13:58.045Z,99059.06
2022-09-27T17:16:27.093Z,99059.91
2022-09-27T17:18:56.481Z,99059.69
2022-09-27T17:21:30.917Z,99077.72
2022-09-27T17:24:02.182Z,99070.38
2022-09-27T17:26:32.047Z,99065.75
2022-09-27T17:29:02.439Z,99080.22
2022-09-27T17:31:36.141Z,99073.94
2022-09-27T17:34:05.968Z,99081.91
2022-09-27T17:36:37.779Z,99078.34
2022-09-27T17:39:07.058Z,99079.97
2022-09-27T17:41:40.113Z,99079.63
2022-09-27T17:44:11.446Z,99080.47
2022-09-27T17:46:39.972Z,99082.13
2022-09-27T17:49:25.877Z,99088.66
2022-09-27T17:51:55.774Z,99084.84
2022-09-27T17:54:28.035Z,99085.91
2022-09-27T17:56:56.628Z,99093.03
2022-09-27T17:59:26.124Z,99089.25
2022-09-27T18:01:54.693Z,99090.31
2022-09-27T18:04:23.482Z,99083.19
2022-09-27T18:06:52.443Z,99094.94
2022-09-27T18:09:22.407Z,99083.19
2022-09-27T18:11:51.237Z,99085.69
2022-09-27T18:14:21.158Z,99098.50
2022-09-27T18:16:49.740Z,99099.34
2022-09-27T18:19:18.935Z,99104.78
2022-09-27T18:21:47.343Z,99094.72
2022-09-27T18:24:15.923Z,99100.16
2022-09-27T18:26:49.206Z,99096.59
2022-09-27T18:29:19.768Z,99106.69
2022-09-27T18:31:49.394Z,99105.63
2022-09-27T18:34:19.383Z,99111.09
2022-09-27T18:36:48.215Z,99105.63
2022-09-27T18:39:19.749Z,99111.09
2022-09-27T18:41:49.819Z,99113.81
2022-09-27T18:44:19.609Z,99117.38
2022-09-27T18:46:49.490Z,99118.19
2022-09-27T18:49:21.073Z,99120.09
2022-09-27T18:51:52.129Z,99123.63
2022-09-27T18:54:22.337Z,99123.63
2022-09-27T18:56:53.951Z,99123.63
2022-09-27T18:59:24.149Z,99122.00
2022-09-27T19:01:53.055Z,99120.09
2022-09-27T19:04:25.029Z,99129.09
2022-09-27T19:06:54.829Z,99123.63
2022-09-27T19:09:23.586Z,99117.38
2022-09-27T19:11:53.757Z,99120.91
2022-09-27T19:14:23.765Z,99120.91
2022-09-27T19:16:52.599Z,99128.28
2022-09-27T19:19:21.511Z,99122.00
2022-09-27T19:21:50.491Z,99128.28
2022-09-27T19:24:19.545Z,99128.28
2022-09-27T19:26:48.240Z,99124.72
2022-09-27T19:29:18.179Z,99127.47
2022-09-27T19:31:46.576Z,99131.25
2022-09-27T19:34:15.480Z,99131.25
2022-09-27T19:36:44.101Z,99125.78
2022-09-27T19:39:12.795Z,99127.47
2022-09-27T19:41:41.090Z,99133.13
2022-09-27T19:44:09.969Z,99125.78
2022-09-27T19:46:39.730Z,99131.25
2022-09-27T19:49:08.386Z,99129.56
2022-09-27T19:51:37.967Z,99130.41
2022-09-27T19:54:06.801Z,99127.91
2022-09-27T19:56:35.066Z,99125.16
2022-09-27T19:59:07.021Z,99128.75
2022-09-27T20:01:36.319Z,99126.00
2022-09-27T20:04:06.249Z,99127.91
2022-09-27T20:06:34.990Z,99127.06
2022-09-27T20:09:04.431Z,99127.91
2022-09-27T20:11:34.100Z,99125.16
2022-09-27T20:14:02.426Z,99133.34
2022-09-27T20:16:31.227Z,99125.41
2022-09-27T20:19:01.179Z,99131.69
2022-09-27T20:21:33.568Z,99126.22
2022-09-27T20:24:03.515Z,99126.22
2022-09-27T20:26:34.790Z,99131.09
2022-09-27T20:29:05.233Z,99134.66
2022-09-27T20:31:37.323Z,99133.84
2022-09-27T20:34:07.626Z,99139.28
2022-09-27T20:36:39.959Z,99129.22
2022-09-27T20:39:10.342Z,99133.00
2022-09-27T20:41:40.904Z,99135.72
2022-09-27T20:44:11.136Z,99125.88
2022-09-27T20:46:41.258Z,99133.22
2022-09-27T20:49:11.980Z,99132.16
2022-09-27T20:51:43.775Z,99133.22
2022-09-27T20:54:13.909Z,99127.75
2022-09-27T20:56:44.150Z,99133.22
2022-09-27T20:59:16.694Z,99132.59
2022-09-27T21:01:46.493Z,99134.28
2022-09-27T21:04:17.118Z,99134.28
2022-09-27T21:06:47.637Z,99132.59
2022-09-27T21:09:19.163Z,99134.50
